Time;durP1;ratioP1;P1;durP2;ratioP2;P2;SDS_P1;SDS_P2;PMS_P1;PMS_P2;Temp;Humidity;BMP_temperature;BMP_pressure;BME280_temperature;BME280_humidity;BME280_pressure;Samples;Min_cycle;Max_cycle;Signal;HPM_P1;HPM_P2
2021/03/24 00:01:53;;;;;;;41.13;26.10;;;7.80;99.90;;;;;;4965131;28;20043;-66
2021/03/24 00:04:39;;;;;;;44.97;26.95;;;7.80;99.90;;;;;;4965887;28;20106;-66
2021/03/24 00:07:25;;;;;;;46.50;27.80;;;7.80;99.90;;;;;;4965676;28;20077;-66
2021/03/24 00:10:13;;;;;;;46.83;29.55;;;7.80;99.90;;;;;;4960698;28;20086;-66
2021/03/24 00:13:00;;;;;;;48.85;28.75;;;7.80;99.90;;;;;;4963814;28;20047;-66
2021/03/24 00:15:46;;;;;;;45.28;27.27;;;7.80;99.90;;;;;;4978778;28;20114;-66
2021/03/24 00:18:33;;;;;;;44.42;27.60;;;7.80;99.90;;;;;;5004351;28;20049;-66
2021/03/24 00:21:18;;;;;;;47.40;28.15;;;7.80;99.90;;;;;;5040142;28;20041;-66
2021/03/24 00:24:05;;;;;;;49.60;28.05;;;7.70;99.90;;;;;;5040098;28;20058;-66
2021/03/24 00:26:51;;;;;;;49.65;28.85;;;7.80;99.90;;;;;;5037779;28;20061;-66
2021/03/24 00:29:37;;;;;;;45.15;29.23;;;7.80;99.90;;;;;;5036821;28;20084;-66
2021/03/24 00:32:23;;;;;;;49.67;29.70;;;7.70;99.90;;;;;;5040062;28;20045;-66
2021/03/24 00:35:10;;;;;;;50.20;30.90;;;7.70;99.90;;;;;;5040221;28;20041;-66
2021/03/24 00:37:57;;;;;;;52.17;30.38;;;7.70;99.90;;;;;;5039948;28;20055;-66
2021/03/24 00:40:45;;;;;;;53.30;30.45;;;7.70;99.90;;;;;;5043855;28;20045;-66
2021/03/24 00:43:31;;;;;;;57.05;33.22;;;7.70;99.90;;;;;;5043500;28;20053;-66
2021/03/24 00:46:17;;;;;;;58.40;33.15;;;7.60;99.90;;;;;;5037423;28;20049;-66
2021/03/24 00:49:03;;;;;;;61.55;35.65;;;7.70;99.90;;;;;;5038706;28;20136;-66
2021/03/24 00:51:48;;;;;;;59.05;32.83;;;7.70;99.90;;;;;;5043837;28;20084;-66
2021/03/24 00:54:35;;;;;;;54.40;32.58;;;7.70;99.90;;;;;;5043358;28;20041;-66
2021/03/24 00:57:20;;;;;;;55.13;33.78;;;7.70;99.90;;;;;;5044374;28;20394;-66
2021/03/24 01:00:09;;;;;;;57.78;32.97;;;7.70;99.90;;;;;;5043844;28;20078;-66
2021/03/24 01:02:55;;;;;;;59.17;32.42;;;7.70;99.90;;;;;;5044390;28;20057;-66
2021/03/24 01:05:46;;;;;;;61.70;33.75;;;7.60;99.90;;;;;;5044055;28;20049;-66
2021/03/24 01:08:32;;;;;;;65.05;34.90;;;7.60;99.90;;;;;;5035815;28;20069;-66
2021/03/24 01:11:18;;;;;;;61.00;34.72;;;7.70;99.90;;;;;;5044453;28;20132;-66
2021/03/24 01:14:06;;;;;;;51.70;32.95;;;7.60;99.90;;;;;;5043686;28;20575;-66
2021/03/24 01:16:51;;;;;;;52.72;32.13;;;7.60;99.90;;;;;;5033824;28;20041;-66
2021/03/24 01:19:37;;;;;;;67.65;33.70;;;7.60;99.90;;;;;;5043395;28;20092;-66
2021/03/24 01:22:23;;;;;;;64.45;33.13;;;7.60;99.90;;;;;;5044552;28;20132;-66
2021/03/24 01:25:09;;;;;;;54.55;32.35;;;7.60;99.90;;;;;;5041198;28;20053;-66
2021/03/24 01:27:56;;;;;;;54.72;31.13;;;7.60;99.90;;;;;;5030295;28;20049;-66
2021/03/24 01:30:42;;;;;;;57.85;32.28;;;7.60;99.90;;;;;;5038773;28;20136;-66
2021/03/24 01:33:28;;;;;;;54.17;32.63;;;7.50;99.90;;;;;;5042911;28;20061;-66
2021/03/24 01:36:13;;;;;;;57.50;33.03;;;7.40;99.90;;;;;;5030545;28;20070;-66
2021/03/24 01:38:59;;;;;;;62.22;35.42;;;7.40;99.90;;;;;;5026224;28;20042;-66
2021/03/24 01:41:45;;;;;;;62.65;34.90;;;7.30;99.90;;;;;;5036318;28;20048;-66
2021/03/24 01:44:31;;;;;;;57.22;33.85;;;7.20;99.90;;;;;;5038824;28;20072;-66
2021/03/24 01:47:17;;;;;;;68.07;33.50;;;7.20;99.90;;;;;;5034279;28;20049;-66
2021/03/24 01:50:12;;;;;;;59.97;35.33;;;7.30;99.90;;;;;;5033333;28;20056;-66
2021/03/24 01:52:58;;;;;;;57.47;34.53;;;7.30;99.90;;;;;;5033784;28;20076;-66
2021/03/24 01:55:44;;;;;;;64.05;34.40;;;7.40;99.90;;;;;;5036930;28;20060;-66
2021/03/24 01:58:31;;;;;;;62.58;35.95;;;7.40;99.90;;;;;;5031056;28;20169;-66
2021/03/24 02:01:19;;;;;;;59.85;35.97;;;7.40;99.90;;;;;;5041515;28;20071;-66
2021/03/24 02:04:05;;;;;;;58.25;32.97;;;7.40;99.90;;;;;;5035604;28;20046;-66
2021/03/24 02:07:13;;;;;;;59.97;33.97;;;7.40;99.90;;;;;;5036779;28;20054;-66
2021/03/24 02:10:15;;;;;;;60.33;33.47;;;7.40;99.90;;;;;;5043264;28;20046;-66
2021/03/24 02:13:03;;;;;;;66.15;36.45;;;7.40;99.90;;;;;;5031904;28;20112;-66
2021/03/24 02:15:55;;;;;;;60.42;34.80;;;7.40;99.90;;;;;;5025544;28;20065;-66
2021/03/24 02:18:43;;;;;;;70.93;37.33;;;7.40;99.90;;;;;;5036378;28;20062;-66
2021/03/24 02:21:34;;;;;;;62.65;36.25;;;7.40;99.90;;;;;;5036121;28;20080;-66
2021/03/24 02:24:36;;;;;;;71.47;37.45;;;7.30;99.90;;;;;;5028703;28;20119;-65
2021/03/24 02:27:34;;;;;;;68.97;38.00;;;7.30;99.90;;;;;;5027055;28;20144;-65
2021/03/24 02:30:33;;;;;;;64.07;36.63;;;7.30;99.90;;;;;;5036647;28;20054;-66
2021/03/24 02:33:23;;;;;;;67.25;36.38;;;7.20;99.90;;;;;;5032483;28;20073;-66
2021/03/24 02:36:14;;;;;;;65.72;36.83;;;7.20;99.90;;;;;;5035865;28;20148;-66
2021/03/24 02:39:04;;;;;;;61.65;35.05;;;7.20;99.90;;;;;;5031918;28;20060;-66
2021/03/24 02:41:53;;;;;;;62.58;34.75;;;7.20;99.90;;;;;;5040144;28;20045;-66
2021/03/24 02:44:41;;;;;;;67.70;36.53;;;7.10;99.90;;;;;;5030228;28;20107;-66
2021/03/24 02:47:27;;;;;;;59.28;35.03;;;7.10;99.90;;;;;;5024555;28;20068;-66
2021/03/24 02:50:15;;;;;;;68.95;38.03;;;7.10;99.90;;;;;;5037734;28;20151;-66
2021/03/24 02:53:01;;;;;;;63.55;37.40;;;7.00;99.90;;;;;;5036832;28;20051;-64
2021/03/24 02:55:47;;;;;;;63.92;36.00;;;7.00;99.90;;;;;;5042024;28;20064;-66
2021/03/24 02:58:34;;;;;;;66.80;36.65;;;7.00;99.90;;;;;;5037041;28;20052;-66
2021/03/24 03:01:23;;;;;;;61.42;37.45;;;7.00;99.90;;;;;;5033273;28;20091;-66
2021/03/24 03:04:21;;;;;;;63.60;38.15;;;7.00;99.90;;;;;;5038616;28;20054;-66
2021/03/24 03:07:13;;;;;;;64.20;37.50;;;6.90;99.90;;;;;;5041024;28;20126;-66
2021/03/24 03:10:19;;;;;;;62.78;37.38;;;6.90;99.90;;;;;;5030474;28;20049;-66
2021/03/24 03:13:17;;;;;;;66.93;37.65;;;6.90;99.90;;;;;;5032496;28;20084;-66
2021/03/24 03:16:06;;;;;;;66.88;37.15;;;6.90;99.90;;;;;;5039893;28;20049;-66
2021/03/24 03:19:03;;;;;;;73.53;38.40;;;6.80;99.90;;;;;;5036397;28;20053;-66
2021/03/24 03:22:00;;;;;;;70.50;39.53;;;6.80;99.90;;;;;;5042178;28;20107;-66
2021/03/24 03:25:00;;;;;;;72.38;42.17;;;6.80;99.90;;;;;;5035254;28;20041;-66
2021/03/24 03:27:50;;;;;;;67.10;37.67;;;6.70;99.90;;;;;;5025652;28;20057;-66
2021/03/24 03:30:39;;;;;;;70.93;39.03;;;6.70;99.90;;;;;;5023223;28;20050;-66
2021/03/24 03:33:31;;;;;;;69.78;40.28;;;6.70;99.90;;;;;;5042321;28;20304;-66
2021/03/24 03:36:17;;;;;;;71.07;40.35;;;6.70;99.90;;;;;;5035747;28;20049;-66
2021/03/24 03:39:06;;;;;;;73.70;38.72;;;6.60;99.90;;;;;;5029813;28;20053;-66
2021/03/24 03:41:54;;;;;;;69.03;38.03;;;6.60;99.90;;;;;;5031464;28;20053;-66
2021/03/24 03:44:40;;;;;;;68.90;40.42;;;6.60;99.90;;;;;;5036817;28;20056;-66
2021/03/24 03:47:26;;;;;;;73.05;40.83;;;6.50;99.90;;;;;;5033213;28;20049;-66
2021/03/24 03:50:18;;;;;;;69.80;39.63;;;6.50;99.90;;;;;;5033698;28;20046;-66
2021/03/24 03:53:25;;;;;;;69.97;39.58;;;6.50;99.90;;;;;;5026185;28;20049;-66
2021/03/24 03:56:22;;;;;;;75.55;41.53;;;6.50;99.90;;;;;;5033161;28;20390;-66
2021/03/24 03:59:17;;;;;;;78.18;42.08;;;6.40;99.90;;;;;;5027876;28;20105;-66
2021/03/24 04:02:05;;;;;;;76.22;39.47;;;6.40;99.90;;;;;;5032533;28;20041;-66
2021/03/24 04:05:01;;;;;;;73.35;40.72;;;6.40;99.90;;;;;;5040323;28;20053;-66
2021/03/24 04:08:03;;;;;;;73.35;40.53;;;6.30;99.90;;;;;;5023460;28;20054;-66
2021/03/24 04:10:55;;;;;;;72.13;40.83;;;6.30;99.90;;;;;;5023706;28;20053;-66
2021/03/24 04:13:45;;;;;;;76.90;42.17;;;6.20;99.90;;;;;;5026646;28;20054;-66
2021/03/24 04:16:32;;;;;;;70.90;40.03;;;6.20;99.90;;;;;;5039875;28;20152;-66
2021/03/24 04:19:22;;;;;;;81.72;42.92;;;6.20;99.90;;;;;;5031862;28;20504;-66
2021/03/24 04:22:08;;;;;;;81.20;41.65;;;6.20;99.90;;;;;;5039271;28;20053;-66
2021/03/24 04:24:55;;;;;;;81.35;44.22;;;6.20;99.90;;;;;;5037993;28;20118;-66
2021/03/24 04:27:43;;;;;;;83.20;45.60;;;6.10;99.90;;;;;;5035762;28;20050;-66
2021/03/24 04:30:42;;;;;;;75.53;42.97;;;6.10;99.90;;;;;;5043920;28;20045;-66
2021/03/24 04:33:29;;;;;;;81.07;42.50;;;6.10;99.90;;;;;;5033892;28;20042;-66
2021/03/24 04:36:38;;;;;;;80.60;43.13;;;6.00;99.90;;;;;;5028122;28;20141;-66
2021/03/24 04:39:42;;;;;;;82.57;43.95;;;5.90;99.90;;;;;;5033557;28;20064;-66
2021/03/24 04:42:44;;;;;;;78.10;42.20;;;5.90;99.90;;;;;;5039183;28;20049;-65
2021/03/24 04:45:41;;;;;;;90.78;48.20;;;5.80;99.90;;;;;;5026727;28;20050;-65
2021/03/24 04:48:30;;;;;;;82.15;44.20;;;5.70;99.90;;;;;;5034687;28;20046;-65
2021/03/24 04:51:27;;;;;;;86.60;46.50;;;5.70;99.90;;;;;;5030194;28;20054;-65
2021/03/24 04:54:26;;;;;;;90.38;47.78;;;5.60;99.90;;;;;;5039322;28;20054;-65
2021/03/24 04:57:16;;;;;;;86.68;45.67;;;5.60;99.90;;;;;;5028657;28;20110;-65
2021/03/24 05:00:13;;;;;;;97.60;50.50;;;5.60;99.90;;;;;;5040835;28;20049;-65
2021/03/24 05:03:07;;;;;;;91.00;47.15;;;5.50;99.90;;;;;;5034167;28;20057;-65
2021/03/24 05:05:57;;;;;;;92.53;50.28;;;5.50;99.90;;;;;;5034439;28;20054;-65
2021/03/24 05:08:44;;;;;;;86.93;47.65;;;5.50;99.90;;;;;;5040941;28;20049;-65
2021/03/24 05:11:41;;;;;;;82.55;43.13;;;5.60;99.90;;;;;;5038210;28;20255;-65
2021/03/24 05:14:30;;;;;;;87.38;45.63;;;5.50;99.90;;;;;;5034563;28;20057;-66
2021/03/24 05:17:18;;;;;;;97.90;51.42;;;5.50;99.90;;;;;;5030011;28;20053;-66
2021/03/24 05:20:11;;;;;;;90.13;46.60;;;5.50;99.90;;;;;;5034557;28;20046;-66
2021/03/24 05:22:57;;;;;;;88.82;48.42;;;5.60;99.90;;;;;;5029333;28;20104;-66
2021/03/24 05:25:46;;;;;;;90.00;48.42;;;5.60;99.90;;;;;;5030288;28;20049;-66
2021/03/24 05:28:36;;;;;;;94.53;48.30;;;5.60;99.90;;;;;;5035288;28;20127;-66
2021/03/24 05:31:32;;;;;;;92.05;50.20;;;5.50;99.90;;;;;;5028638;28;20158;-65
2021/03/24 05:34:33;;;;;;;102.35;48.95;;;5.50;99.90;;;;;;5035213;28;20069;-65
2021/03/24 05:37:26;;;;;;;93.45;49.65;;;5.50;99.90;;;;;;5028351;28;20069;-65
2021/03/24 05:40:34;;;;;;;95.80;52.22;;;5.50;99.90;;;;;;5029813;28;20057;-65
2021/03/24 05:43:51;;;;;;;106.03;53.20;;;5.40;99.90;;;;;;5041962;28;20109;-65
2021/03/24 05:47:08;;;;;;;95.60;51.70;;;5.40;99.90;;;;;;5003082;28;20092;-66
2021/03/24 05:50:13;;;;;;;102.22;52.95;;;5.30;99.90;;;;;;5026876;28;20049;-66
2021/03/24 05:53:10;;;;;;;96.10;50.95;;;5.30;99.90;;;;;;5025666;28;20084;-66
2021/03/24 05:56:07;;;;;;;112.25;55.15;;;5.30;99.90;;;;;;5030261;28;20350;-66
2021/03/24 05:59:06;;;;;;;98.18;52.80;;;5.30;99.90;;;;;;5033753;28;20046;-66
2021/03/24 06:01:55;;;;;;;104.18;55.30;;;5.30;99.90;;;;;;5031965;28;20057;-65
2021/03/24 06:04:59;;;;;;;108.25;55.80;;;5.20;99.90;;;;;;5035897;28;20133;-66
2021/03/24 06:08:09;;;;;;;108.38;54.90;;;5.20;99.90;;;;;;5028122;28;20108;-66
2021/03/24 06:11:14;;;;;;;104.63;55.10;;;5.20;99.90;;;;;;5029132;28;20104;-66
2021/03/24 06:14:19;;;;;;;110.32;56.63;;;5.20;99.90;;;;;;5032854;28;20452;-66
2021/03/24 06:17:07;;;;;;;114.45;57.30;;;5.30;99.90;;;;;;5029251;28;20073;-66
2021/03/24 06:20:11;;;;;;;115.88;57.92;;;5.20;99.90;;;;;;5039000;28;20072;-66
2021/03/24 06:23:15;;;;;;;100.40;54.00;;;5.20;99.90;;;;;;5041927;28;20050;-66
2021/03/24 06:26:30;;;;;;;105.97;55.95;;;5.20;99.90;;;;;;5024942;28;20150;-66
2021/03/24 06:29:43;;;;;;;108.55;57.60;;;5.20;99.90;;;;;;5032053;28;20489;-66
2021/03/24 06:32:53;;;;;;;106.93;57.72;;;5.30;99.90;;;;;;5027736;28;20500;-66
2021/03/24 06:36:26;;;;;;;108.93;52.85;;;5.30;99.90;;;;;;5036438;28;20520;-66
2021/03/24 06:39:37;;;;;;;108.05;54.95;;;5.40;99.90;;;;;;4965263;28;20047;-66
2021/03/24 06:42:50;;;;;;;103.72;53.42;;;5.40;99.90;;;;;;4968468;28;20050;-66
2021/03/24 06:45:47;;;;;;;100.75;55.15;;;5.40;99.90;;;;;;4968678;28;20051;-66
2021/03/24 06:49:07;;;;;;;102.20;54.80;;;5.40;99.90;;;;;;4968873;28;20154;-66
2021/03/24 06:52:01;;;;;;;98.57;51.53;;;5.40;99.90;;;;;;4957492;28;20046;-66
2021/03/24 06:55:17;;;;;;;101.65;55.55;;;5.50;99.90;;;;;;4967066;28;20054;-66
2021/03/24 06:58:24;;;;;;;102.53;53.95;;;5.50;99.90;;;;;;4966188;28;20047;-66
2021/03/24 07:01:23;;;;;;;99.88;54.30;;;5.50;99.90;;;;;;4967150;28;20055;-66
2021/03/24 07:04:28;;;;;;;104.93;53.67;;;5.60;99.90;;;;;;4968048;28;20051;-66
2021/03/24 07:07:46;;;;;;;97.20;54.03;;;5.70;99.90;;;;;;4957888;28;20055;-66
2021/03/24 07:11:06;;;;;;;99.25;51.63;;;5.70;99.90;;;;;;4968376;28;20050;-66
2021/03/24 07:14:10;;;;;;;107.70;54.40;;;5.80;99.90;;;;;;4988303;28;20061;-66
2021/03/24 07:17:03;;;;;;;96.68;53.97;;;5.80;99.90;;;;;;5036780;28;20057;-66
2021/03/24 07:20:19;;;;;;;100.32;52.95;;;5.90;99.90;;;;;;5037377;28;20084;-66
2021/03/24 07:23:35;;;;;;;103.65;53.13;;;5.90;99.90;;;;;;5023032;28;20053;-66
2021/03/24 07:26:36;;;;;;;96.88;50.80;;;6.00;99.90;;;;;;5055847;28;20052;-66
2021/03/24 07:29:41;;;;;;;97.57;50.47;;;6.10;99.90;;;;;;5035781;28;20046;-66
2021/03/24 07:32:46;;;;;;;98.78;53.20;;;6.20;99.90;;;;;;5032879;28;20109;-66
2021/03/24 07:36:02;;;;;;;98.75;53.00;;;6.30;99.90;;;;;;5035331;28;20047;-66
2021/03/24 07:39:18;;;;;;;104.78;55.97;;;6.30;99.90;;;;;;5038333;28;20060;-66
2021/03/24 07:42:21;;;;;;;90.25;50.30;;;6.50;99.90;;;;;;5030719;28;20536;-65
2021/03/24 07:45:28;;;;;;;86.72;49.25;;;6.70;99.90;;;;;;5040536;28;20060;-66
2021/03/24 07:48:45;;;;;;;96.25;52.80;;;6.80;99.90;;;;;;5040441;28;20566;-66
2021/03/24 07:51:56;;;;;;;87.80;47.05;;;6.90;99.90;;;;;;5039929;28;20077;-66
2021/03/24 07:55:01;;;;;;;81.57;48.38;;;7.00;99.90;;;;;;5040254;28;20405;-66
2021/03/24 07:58:02;;;;;;;83.75;48.13;;;7.20;99.90;;;;;;5040099;28;20060;-66
2021/03/24 08:01:07;;;;;;;84.18;48.67;;;7.30;99.90;;;;;;5035816;28;20068;-66
2021/03/24 08:04:28;;;;;;;86.22;45.50;;;7.40;99.90;;;;;;5027428;28;20069;-66
2021/03/24 08:07:20;;;;;;;82.70;44.97;;;7.70;99.90;;;;;;5029014;28;20490;-66
2021/03/24 08:10:37;;;;;;;76.47;38.70;;;7.90;99.90;;;;;;5039621;28;20045;-66
2021/03/24 08:13:47;;;;;;;83.35;44.92;;;8.00;99.90;;;;;;5039860;28;20171;-66
2021/03/24 08:16:51;;;;;;;84.38;43.65;;;8.10;99.90;;;;;;5038496;28;20560;-67
2021/03/24 08:20:01;;;;;;;77.80;44.63;;;8.30;99.90;;;;;;5040277;28;20049;-67
2021/03/24 08:22:45;;;;;;;77.15;42.28;;;8.50;99.90;;;;;;5041375;28;20045;-68
2021/03/24 08:25:47;;;;;;;65.10;36.72;;;8.60;99.90;;;;;;5035449;28;20063;-68
2021/03/24 08:28:40;;;;;;;72.18;42.10;;;8.60;99.90;;;;;;5023858;28;20050;-66
2021/03/24 08:31:40;;;;;;;77.05;43.13;;;8.80;99.90;;;;;;5036038;28;20655;-67
2021/03/24 08:34:29;;;;;;;;;;;8.90;99.90;;;;;;5041365;28;20051;-67
2021/03/24 08:37:06;;;;;;;71.03;39.20;;;8.90;99.90;;;;;;5030668;28;20561;-67
2021/03/24 08:39:44;;;;;;;76.93;40.22;;;9.00;99.90;;;;;;5036749;28;20045;-66
2021/03/24 08:42:28;;;;;;;66.07;40.65;;;8.90;99.90;;;;;;5038011;28;20091;-70
2021/03/24 08:45:20;;;;;;;79.38;42.33;;;9.20;99.90;;;;;;5040501;28;20041;-69
2021/03/24 08:47:50;;;;;;;73.18;39.17;;;9.30;99.90;;;;;;5030879;28;20129;-64
2021/03/24 08:50:28;;;;;;;71.90;41.42;;;9.30;99.90;;;;;;5039792;28;20049;-67
2021/03/24 08:53:24;;;;;;;69.70;39.80;;;9.50;99.90;;;;;;5040919;28;20065;-67
2021/03/24 08:56:07;;;;;;;73.32;39.47;;;9.50;99.90;;;;;;5035214;28;20053;-67
2021/03/24 08:58:36;;;;;;;64.90;36.60;;;9.70;99.90;;;;;;5038939;28;20041;-68
2021/03/24 09:01:37;;;;;;;71.60;40.75;;;9.70;99.90;;;;;;5040464;28;20233;-70
2021/03/24 09:04:32;;;;;;;65.45;40.03;;;9.80;99.90;;;;;;5044438;28;20120;-66
2021/03/24 09:07:51;;;;;;;62.90;37.65;;;9.90;99.90;;;;;;5045424;28;20056;-66
2021/03/24 09:10:21;;;;;;;69.45;38.67;;;10.20;99.90;;;;;;5018913;28;20473;-66
2021/03/24 09:13:00;;;;;;;70.40;39.58;;;10.30;99.90;;;;;;5026241;28;20073;-67
2021/03/24 09:15:46;;;;;;;63.05;35.72;;;10.20;99.90;;;;;;5022669;28;20054;-66
2021/03/24 09:18:20;;;;;;;66.63;38.40;;;10.30;99.90;;;;;;5018602;28;20125;-66
2021/03/24 09:21:07;;;;;;;66.93;37.67;;;10.30;99.70;;;;;;5022246;28;20054;-66
2021/03/24 09:23:51;;;;;;;63.33;36.70;;;10.10;98.90;;;;;;5022647;28;20062;-66
2021/03/24 09:26:42;;;;;;;56.85;35.80;;;10.10;99.10;;;;;;5021138;28;20054;-67
2021/03/24 09:29:46;;;;;;;64.10;36.00;;;10.20;99.60;;;;;;5020054;28;20591;-66
2021/03/24 09:32:31;;;;;;;60.15;36.95;;;10.30;99.00;;;;;;4981559;28;20124;-66
2021/03/24 09:35:02;;;;;;;55.40;32.85;;;10.10;99.10;;;;;;5018581;28;20117;-66
2021/03/24 09:37:39;;;;;;;63.95;36.80;;;10.10;99.20;;;;;;5014381;28;20076;-66
2021/03/24 09:40:12;;;;;;;60.85;39.05;;;10.00;99.50;;;;;;5015682;28;20058;-66
2021/03/24 09:42:50;;;;;;;63.75;38.92;;;10.20;99.90;;;;;;5018514;28;20437;-64
2021/03/24 09:45:27;;;;;;;64.18;38.25;;;10.50;99.20;;;;;;5024758;28;20464;-64
2021/03/24 09:48:10;;;;;;;59.17;36.20;;;10.50;99.30;;;;;;5043870;28;20129;-63
2021/03/24 09:50:44;;;;;;;63.15;36.35;;;10.50;99.10;;;;;;5039639;28;20034;-71
2021/03/24 09:53:15;;;;;;;58.42;35.95;;;10.50;99.20;;;;;;5041880;28;20038;-73
2021/03/24 09:55:46;;;;;;;61.45;36.50;;;10.60;99.10;;;;;;5037958;28;20084;-71
2021/03/24 09:58:33;;;;;;;58.72;36.00;;;10.50;98.60;;;;;;5038776;28;20046;-70
2021/03/24 10:01:29;;;;;;;66.30;37.28;;;10.60;99.10;;;;;;5041968;28;20046;-70
2021/03/24 10:04:22;;;;;;;59.40;34.63;;;10.70;98.60;;;;;;5040367;28;20045;-73
2021/03/24 10:06:58;;;;;;;59.83;34.35;;;10.70;98.40;;;;;;5040573;28;20087;-71
2021/03/24 10:09:24;;;;;;;55.83;32.30;;;10.90;98.70;;;;;;5036585;28;20151;-72
2021/03/24 10:12:11;;;;;;;53.97;32.08;;;10.90;98.00;;;;;;5043341;28;20038;-72
2021/03/24 10:14:59;;;;;;;61.33;34.25;;;10.70;97.70;;;;;;5037908;28;20072;-73
2021/03/24 10:17:33;;;;;;;64.47;37.38;;;10.60;98.10;;;;;;5037788;28;20048;-66
2021/03/24 10:20:04;;;;;;;59.17;35.67;;;10.80;98.50;;;;;;5040273;28;20489;-69
2021/03/24 10:22:50;;;;;;;63.78;34.47;;;11.10;98.80;;;;;;5040588;28;20048;-68
2021/03/24 10:25:40;;;;;;;54.75;34.20;;;11.20;97.80;;;;;;5038001;28;20061;-70
2021/03/24 10:28:25;;;;;;;58.13;33.20;;;11.30;98.20;;;;;;5043359;28;20049;-69
2021/03/24 10:31:25;;;;;;;55.83;33.90;;;11.40;97.20;;;;;;5041443;28;20125;-68
2021/03/24 10:34:17;;;;;;;56.08;31.42;;;11.50;97.30;;;;;;5027934;28;20136;-67
2021/03/24 10:37:14;;;;;;;50.08;31.45;;;11.50;96.90;;;;;;5041624;28;20052;-68
2021/03/24 10:39:55;;;;;;;50.30;29.98;;;11.70;97.30;;;;;;5034289;28;20080;-65
2021/03/24 10:42:49;;;;;;;55.75;32.67;;;11.50;96.20;;;;;;5039348;28;20485;-65
2021/03/24 10:45:44;;;;;;;55.63;31.08;;;11.60;96.30;;;;;;5041034;28;20052;-67
2021/03/24 10:48:24;;;;;;;56.08;32.90;;;11.80;96.50;;;;;;5029371;28;20526;-65
2021/03/24 10:51:14;;;;;;;55.88;32.45;;;11.70;96.30;;;;;;5037722;28;20068;-66
2021/03/24 10:53:41;;;;;;;51.70;31.02;;;11.80;96.50;;;;;;5039686;28;20041;-69
2021/03/24 10:56:15;;;;;;;48.80;30.55;;;11.90;96.00;;;;;;5040451;28;20097;-64
2021/03/24 10:59:03;;;;;;;46.70;30.17;;;11.90;96.00;;;;;;5035627;28;20041;-72
2021/03/24 11:01:50;;;;;;;50.30;28.33;;;12.10;95.80;;;;;;5037647;28;20150;-74
2021/03/24 11:04:36;;;;;;;45.88;28.80;;;12.20;95.10;;;;;;5041507;28;20191;-70
2021/03/24 11:07:10;;;;;;;46.05;28.60;;;12.10;95.10;;;;;;5038115;28;20053;-66
2021/03/24 11:09:42;;;;;;;50.45;30.30;;;12.20;94.90;;;;;;5037415;28;20041;-66
2021/03/24 11:12:11;;;;;;;48.05;28.75;;;12.50;95.70;;;;;;5042530;28;20056;-69
2021/03/24 11:14:54;;;;;;;48.83;29.33;;;12.40;94.30;;;;;;5038921;28;20099;-66
2021/03/24 11:17:26;;;;;;;44.40;26.33;;;12.40;94.00;;;;;;5031663;28;20056;-66
2021/03/24 11:20:05;;;;;;;40.22;26.20;;;12.40;94.20;;;;;;5041619;28;20045;-69
2021/03/24 11:22:41;;;;;;;37.65;25.58;;;12.50;94.20;;;;;;5039897;28;20061;-69
2021/03/24 11:25:28;;;;;;;50.75;30.25;;;12.50;93.50;;;;;;5041339;28;20053;-69
2021/03/24 11:28:04;;;;;;;46.67;26.88;;;12.50;94.00;;;;;;5040031;28;20096;-68
2021/03/24 11:30:45;;;;;;;42.95;27.35;;;12.60;93.70;;;;;;5036326;28;20053;-70
2021/03/24 11:33:20;;;;;;;47.03;26.40;;;13.00;93.80;;;;;;5037707;28;20083;-62
2021/03/24 11:35:58;;;;;;;43.22;24.30;;;13.50;94.20;;;;;;5040793;28;20045;-63
2021/03/24 11:38:38;;;;;;;47.00;27.80;;;13.30;92.30;;;;;;5039977;28;20116;-62
2021/03/24 11:41:14;;;;;;;43.97;25.75;;;13.30;92.10;;;;;;5040233;28;20050;-67
2021/03/24 11:43:43;;;;;;;36.50;24.58;;;13.50;92.20;;;;;;5037305;28;20132;-67
2021/03/24 11:46:34;;;;;;;42.90;26.38;;;13.60;92.00;;;;;;5039455;28;20467;-71
2021/03/24 11:48:59;;;;;;;39.70;23.15;;;14.10;91.90;;;;;;5039179;28;20057;-68
2021/03/24 11:51:43;;;;;;;36.47;23.67;;;14.10;90.50;;;;;;5042406;28;20056;-68
2021/03/24 11:54:12;;;;;;;40.58;23.95;;;14.40;90.60;;;;;;5042281;28;20059;-68
2021/03/24 11:57:06;;;;;;;34.55;22.02;;;14.30;87.90;;;;;;5039168;28;20064;-67
2021/03/24 11:59:49;;;;;;;36.60;22.52;;;14.40;86.80;;;;;;5029913;28;20052;-62
2021/03/24 12:02:22;;;;;;;36.88;23.05;;;14.40;85.00;;;;;;5037067;28;20068;-62
2021/03/24 12:05:23;;;;;;;35.38;23.77;;;14.40;86.60;;;;;;5038319;28;20166;-63
2021/03/24 12:07:57;;;;;;;39.75;21.38;;;14.40;87.10;;;;;;5039281;28;20051;-66
2021/03/24 12:10:25;;;;;;;32.10;21.50;;;14.50;85.80;;;;;;5040334;28;20048;-66
2021/03/24 12:13:09;;;;;;;36.63;22.35;;;14.40;83.10;;;;;;5042393;28;20046;-70
2021/03/24 12:15:37;;;;;;;34.40;22.33;;;14.90;84.10;;;;;;5042182;28;20049;-69
2021/03/24 12:18:14;;;;;;;36.15;21.70;;;14.70;82.00;;;;;;5042083;28;20053;-69
2021/03/24 12:20:46;;;;;;;34.08;22.00;;;15.10;84.30;;;;;;5041400;28;20540;-65
2021/03/24 12:23:13;;;;;;;38.58;22.90;;;15.10;81.70;;;;;;5039915;28;20033;-64
2021/03/24 12:25:45;;;;;;;28.77;21.90;;;15.00;82.90;;;;;;5040887;28;20553;-64
2021/03/24 12:28:11;;;;;;;33.40;21.65;;;14.60;80.70;;;;;;5041439;28;20041;-64
2021/03/24 12:30:44;;;;;;;29.37;20.70;;;15.00;82.20;;;;;;5041725;28;20109;-64
2021/03/24 12:33:19;;;;;;;32.47;20.67;;;14.90;80.50;;;;;;5043119;28;20097;-64
2021/03/24 12:35:47;;;;;;;27.83;18.52;;;14.70;78.30;;;;;;5044821;28;20713;-64
2021/03/24 12:38:21;;;;;;;29.77;20.02;;;14.90;77.50;;;;;;5046689;28;20053;-63
2021/03/24 12:40:57;;;;;;;27.77;20.30;;;15.20;77.60;;;;;;5049849;28;20049;-64
2021/03/24 12:43:31;;;;;;;28.73;18.27;;;15.70;77.00;;;;;;5045133;28;20109;-64
2021/03/24 12:46:15;;;;;;;23.15;16.73;;;16.10;75.10;;;;;;5051750;28;20112;-64
2021/03/24 12:48:55;;;;;;;25.50;17.00;;;16.50;70.40;;;;;;5045286;28;20045;-64
2021/03/24 12:51:27;;;;;;;23.42;14.90;;;16.30;67.70;;;;;;5044018;28;20045;-64
2021/03/24 12:53:59;;;;;;;28.23;17.55;;;16.00;66.00;;;;;;5045178;28;20067;-64
2021/03/24 12:56:31;;;;;;;24.20;16.70;;;16.00;68.60;;;;;;5042688;28;20045;-63
2021/03/24 12:59:00;;;;;;;24.40;17.02;;;16.30;67.50;;;;;;5043966;28;20080;-63
2021/03/24 13:01:33;;;;;;;24.40;16.75;;;16.10;67.40;;;;;;5042753;28;20047;-64
2021/03/24 13:04:05;;;;;;;24.00;15.48;;;15.90;66.40;;;;;;5044661;28;20101;-64
2021/03/24 13:07:09;;;;;;;25.23;16.23;;;15.30;67.20;;;;;;5045601;28;20165;-64
2021/03/24 13:09:45;;;;;;;22.35;15.70;;;15.30;68.60;;;;;;5041312;28;20075;-64
2021/03/24 13:12:31;;;;;;;24.77;15.18;;;15.40;68.00;;;;;;5042933;28;20490;-64
2021/03/24 13:15:08;;;;;;;26.95;15.98;;;15.90;67.70;;;;;;5043698;28;20041;-64
2021/03/24 13:17:55;;;;;;;21.60;14.52;;;16.40;64.70;;;;;;5042917;28;20042;-64
2021/03/24 13:20:51;;;;;;;23.55;15.20;;;16.10;62.90;;;;;;5042413;28;20053;-62
2021/03/24 13:23:45;;;;;;;23.90;16.80;;;16.50;62.90;;;;;;5034305;28;20095;-72
2021/03/24 13:26:35;;;;;;;26.65;16.83;;;16.20;64.00;;;;;;5042287;28;20390;-71
2021/03/24 13:29:07;;;;;;;24.88;17.42;;;15.70;66.70;;;;;;5044942;28;20073;-73
2021/03/24 13:32:24;;;;;;;33.58;17.48;;;15.70;67.00;;;;;;5044685;28;20116;-71
2021/03/24 13:35:23;;;;;;;24.60;15.60;;;15.80;64.90;;;;;;4980727;28;20062;-72
2021/03/24 13:37:49;;;;;;;28.33;18.20;;;15.40;61.70;;;;;;4981330;28;20477;-72
2021/03/24 13:40:33;;;;;;;26.45;16.70;;;15.60;62.30;;;;;;4981240;28;20106;-71
2021/03/24 13:43:03;;;;;;;24.45;17.58;;;15.80;63.10;;;;;;4975090;28;20046;-78
2021/03/24 13:45:48;;;;;;;24.60;16.48;;;15.90;63.30;;;;;;4975470;28;20061;-77
2021/03/24 13:48:20;;;;;;;25.85;18.02;;;15.90;60.00;;;;;;4981721;28;20051;-77
2021/03/24 13:50:48;;;;;;;24.85;17.38;;;16.00;61.50;;;;;;4979327;28;20059;-79
2021/03/24 13:53:26;;;;;;;24.35;18.27;;;15.80;61.90;;;;;;4981180;28;20091;-79
2021/03/24 13:56:07;;;;;;;25.17;18.77;;;16.10;61.00;;;;;;4982166;28;20522;-76
2021/03/24 13:58:43;;;;;;;32.03;19.38;;;15.90;61.30;;;;;;4977219;28;20155;-75
2021/03/24 14:01:21;;;;;;;29.02;19.63;;;15.50;62.70;;;;;;4982714;28;20058;-77
2021/03/24 14:04:23;;;;;;;28.20;20.52;;;15.70;64.20;;;;;;4981566;28;20211;-77
2021/03/24 14:07:25;;;;;;;32.35;20.17;;;15.70;64.30;;;;;;4981940;28;20070;-78
2021/03/24 14:10:11;;;;;;;31.67;19.42;;;15.70;64.50;;;;;;4999114;28;20069;-78
2021/03/24 14:12:51;;;;;;;30.73;20.80;;;16.00;63.60;;;;;;5034791;28;20038;-76
2021/03/24 14:15:31;;;;;;;34.45;19.20;;;16.10;62.90;;;;;;5038186;28;20042;-67
2021/03/24 14:18:21;;;;;;;30.73;19.38;;;15.50;63.10;;;;;;5050244;28;20036;-67
2021/03/24 14:21:17;;;;;;;29.88;19.88;;;15.80;64.20;;;;;;5041825;28;20049;-67
2021/03/24 14:23:51;;;;;;;30.98;20.60;;;16.60;62.40;;;;;;5041876;28;20041;-71
2021/03/24 14:26:58;;;;;;;28.05;20.60;;;15.80;61.90;;;;;;5042230;28;20041;-69